• Join FlightAware (Why Join?)
  • Login
  • US Flag 
09:47AM EST


 

Airport Tracker/Info


-or-


 

Live Flight TrackerFlight Track Log ✈ DAL635 ✈ 21-Jul-2014 ✈ KSLC - KLAX

Flight Track Log - Related Links

Times and Time Zones

All times are in EDT time to prevent confusion due to time zone crossing. See the DAL635 flight status page for this flight to view local times or setup timezone preferences in your user account.

Time Position Orientation Groundspeed Altitude Reporting Facility
EDT Latitude Longitude Course Direction KTS MPH feet Rate Location/Type
12:31AM 40.7561 -111.9964 180° South 196 226 5,700  Level Salt Lake Center
12:32AM 40.7044 -111.9847 170° South 203 234 7,000 1,800 Climbing Salt Lake Center
12:33AM 40.6347 -111.9767 175° South 248 285 9,300 2,280 Climbing Salt Lake Center
12:34AM 40.4816 -111.9515 176° South  Level FlightAware Approximate
12:34AM 40.5628 -111.9675 174° South 259 298 11,700  Level Salt Lake Center
12:35AM 40.3825 -111.9333 180° South  Level FlightAware Approximate
12:35AM 40.4833 -111.9569 174° South 292 336 13,400  Level Salt Lake Center
12:36AM 40.2817 -111.9333 180° South  Level FlightAware Approximate
12:36AM 40.3833 -111.9481 176° South 374 430 14,400  Level Salt Lake Center
12:37AM 40.2525 -111.9406 177° South 392 451 17,500 2,220 Climbing Salt Lake Center
12:38AM 40.1411 -111.9603 188° South 408 470 19,000 1,740 Climbing Salt Lake Center
12:39AM 40.0250 -111.9775 186° South 418 481 21,100 1,860 Climbing Salt Lake Center
12:40AM 39.9089 -111.9936 186° South 420 483 22,900 1,440 Climbing Salt Lake Center
12:41AM 39.7878 -112.0117 187° South 437 503 24,100 1,140 Climbing Salt Lake Center
12:42AM 39.6614 -112.0300 186° South 455 524 25,300 1,440 Climbing Salt Lake Center
12:43AM 39.5336 -112.0483 186° South 460 529 27,100 1,680 Climbing Salt Lake Center
12:44AM 39.4078 -112.0650 186° South 455 524 28,800 1,560 Climbing Salt Lake Center
12:45AM 39.2828 -112.0831 186° South 455 524 30,400 1,560 Climbing Salt Lake Center
12:46AM 39.1622 -112.1108 190° South 435 501 32,000 780 Climbing Salt Lake Center
12:47AM 39.0642 -112.1975 214° Southwest 428 493 32,000  Level Salt Lake Center
12:48AM 38.9503 -112.3017 215° Southwest 423 487 32,000  Level Salt Lake Center
12:49AM 38.8558 -112.3878 215° Southwest 420 483 32,000  Level Salt Lake Center
12:50AM 38.7617 -112.4756 216° Southwest 420 483 32,000  Level Salt Lake Center
12:51AM 38.6664 -112.5608 215° Southwest 420 483 32,000  Level Salt Lake Center
12:52AM 38.5703 -112.6467 215° Southwest 420 483 32,000  Level Salt Lake Center
12:53AM 38.4744 -112.7336 215° Southwest 420 483 32,000  Level Salt Lake Center
12:54AM 38.3797 -112.8183 215° Southwest 420 483 32,000  Level Salt Lake Center
12:55AM 38.2850 -112.9044 216° Southwest 420 483 32,000  Level Salt Lake Center
12:56AM 38.1717 -113.0050 215° Southwest 419 482 32,000  Level Salt Lake Center
12:57AM 38.0747 -113.0892 214° Southwest 420 483 32,000  Level Salt Lake Center
12:59AM 37.9786 -113.1747 215° Southwest 423 487 32,000  Level Salt Lake Center
01:00AM 37.8833 -113.2592 215° Southwest 422 486 32,000  Level Salt Lake Center
01:01AM 37.7861 -113.3428 214° Southwest 423 487 32,000  Level Salt Lake Center
01:02AM 37.6886 -113.4269 214° Southwest 425 489 32,000  Level Salt Lake Center
01:03AM 37.5925 -113.5108 215° Southwest 425 489 32,000  Level Salt Lake Center
01:04AM 37.4964 -113.5950 215° Southwest 425 489 32,000  Level Salt Lake Center
01:05AM 37.3986 -113.6772 214° Southwest 426 490 32,000  Level Los Angeles Center
01:06AM 37.3017 -113.7603 214° Southwest 424 488 32,000  Level Los Angeles Center
01:07AM 37.2058 -113.8439 215° Southwest 424 488 32,000  Level Los Angeles Center
01:08AM 37.1053 -113.9283 214° Southwest 424 488 32,000  Level Los Angeles Center
01:09AM 36.9894 -114.0264 214° Southwest 421 484 32,000  Level Los Angeles Center
01:10AM 36.8906 -114.1108 214° Southwest 428 493 32,000  Level Los Angeles Center
01:11AM 36.7933 -114.1956 215° Southwest 428 493 32,000  Level Los Angeles Center
01:12AM 36.6944 -114.2781 214° Southwest 427 491 32,000  Level Los Angeles Center
01:13AM 36.5950 -114.3617 214° Southwest 427 491 32,000  Level Los Angeles Center
01:14AM 36.4981 -114.4439 214° Southwest 427 491 32,000  Level Los Angeles Center
01:15AM 36.3981 -114.5272 214° Southwest 428 493 32,000  Level Los Angeles Center
01:16AM 36.3000 -114.6092 214° Southwest 428 493 32,000  Level Los Angeles Center
01:17AM 36.2019 -114.6911 214° Southwest 427 491 32,000  Level Los Angeles Center
01:18AM 36.1025 -114.7744 214° Southwest 427 491 32,000  Level Los Angeles Center
01:19AM 35.9856 -114.8753 215° Southwest 426 490 32,000  Level Los Angeles Center
01:20AM 35.9053 -114.9853 228° Southwest 428 493 32,000  Level Los Angeles Center
01:21AM 35.8244 -115.0939 227° Southwest 428 493 32,000  Level Los Angeles Center
01:22AM 35.7444 -115.2031 228° Southwest 428 493 32,000  Level Los Angeles Center
01:23AM 35.6642 -115.3139 228° Southwest 429 494 32,000  Level Los Angeles Center
01:24AM 35.5825 -115.4206 227° Southwest 429 494 32,000  Level Los Angeles Center
01:25AM 35.4964 -115.5219 224° Southwest 429 494 32,000  Level Los Angeles Center
01:26AM 35.4081 -115.6244 223° Southwest 428 493 32,000  Level Los Angeles Center
01:27AM 35.3231 -115.7239 224° Southwest 427 491 32,000  Level Los Angeles Center
01:28AM 35.2372 -115.8231 223° Southwest 424 488 32,000  Level Los Angeles Center
01:29AM 35.1517 -115.9219 223° Southwest 423 487 32,000  Level Los Angeles Center
01:30AM 35.0672 -116.0203 224° Southwest 422 486 32,000  Level Los Angeles Center
01:31AM 34.9806 -116.1183 223° Southwest 423 487 32,000  Level Los Angeles Center
01:32AM 34.8953 -116.2169 223° Southwest 424 488 32,000  Level Los Angeles Center
01:33AM 34.8097 -116.3144 223° Southwest 424 488 32,000  Level Los Angeles Center
01:34AM 34.7236 -116.4142 224° Southwest 424 488 32,000 -360 Level Los Angeles Center
01:35AM 34.6192 -116.5308 223° Southwest 424 488 31,300 -960 Descending Los Angeles Center
01:36AM 34.5322 -116.6314 224° Southwest 426 490 30,100 -1,680 Descending Los Angeles Center
01:37AM 34.4414 -116.7325 223° Southwest 438 504 28,000 -2,640 Descending Los Angeles Center
01:38AM 34.3492 -116.8367 223° Southwest 448 516 24,800 -3,000 Descending Los Angeles Center
01:39AM 34.2589 -116.9381 223° Southwest 444 511 21,900 -2,520 Descending Los Angeles Center
01:40AM 34.1731 -117.0331 222° Southwest 422 486 19,700 -1,680 Descending Los Angeles Center
01:41AM 34.0986 -117.1283 227° Southwest 364 419 18,600 -1,560 Descending Los Angeles Center
01:42AM 34.0667 -117.2000 242° Southwest 355 409 17,200 -2,220 Descending Southern California TRACON
01:43AM 34.0333 -117.3167 251° West 355 409 15,100 -1,980 Descending Southern California TRACON
01:45AM 34.0167 -117.5333 265° West 335 386 11,300 -1,620 Descending Southern California TRACON
01:46AM 34.0167 -117.6500 270° West 366 421 10,300 -960 Descending Southern California TRACON
01:47AM 34.0000 -117.7333 256° West 278 320 9,500 -1,200 Descending Southern California TRACON
01:48AM 34.0000 -117.8333 270° West 284 327 8,100 -1,380 Descending Southern California TRACON
01:49AM 33.9833 -117.9167 256° West 281 323 6,800 -1,200 Descending Southern California TRACON
01:50AM 33.9833 -118.0000 270° West 268 308 5,900 -1,020 Descending Southern California TRACON
01:51AM 33.9667 -118.0833 256° West 257 296 4,900 -1,020 Descending Southern California TRACON
01:51AM 33.9622 -118.1422 265° West 260 299 4,100 -1,200 Descending Los Angeles Center
01:53AM 33.9544 -118.2172 263° West 238 274 2,800 -1,140 Descending Los Angeles Center
01:54AM 33.9492 -118.2778 264° West 196 226 1,800 -1,020 Descending Los Angeles Center
01:55AM 33.9422 -118.3414 263° West 173 199 800 -840 Descending Los Angeles Center
01:56AM 33.9450 -118.3908 274° West 183 211 100 -720 Descending Los Angeles Center